sensor_id;sensor_type;location;lat;lon;timestamp;P1;durP1;ratioP1;P2;durP2;ratioP2
22470;SDS011;11402;51.374;6.594;2023-02-08T00:00:21;18.70;;;10.65;;
22470;SDS011;11402;51.374;6.594;2023-02-08T00:02:47;18.60;;;10.43;;
22470;SDS011;11402;51.374;6.594;2023-02-08T00:05:13;17.25;;;9.90;;
22470;SDS011;11402;51.374;6.594;2023-02-08T00:07:39;17.25;;;10.25;;
22470;SDS011;11402;51.374;6.594;2023-02-08T00:10:04;17.42;;;10.48;;
22470;SDS011;11402;51.374;6.594;2023-02-08T00:12:31;18.67;;;10.63;;
22470;SDS011;11402;51.374;6.594;2023-02-08T00:14:57;17.80;;;10.38;;
22470;SDS011;11402;51.374;6.594;2023-02-08T00:17:23;18.83;;;10.18;;
22470;SDS011;11402;51.374;6.594;2023-02-08T00:19:48;19.55;;;9.80;;
22470;SDS011;11402;51.374;6.594;2023-02-08T00:22:14;20.90;;;9.85;;
22470;SDS011;11402;51.374;6.594;2023-02-08T00:24:40;17.63;;;10.13;;
22470;SDS011;11402;51.374;6.594;2023-02-08T00:27:06;14.95;;;9.48;;
22470;SDS011;11402;51.374;6.594;2023-02-08T00:29:31;17.00;;;9.85;;
22470;SDS011;11402;51.374;6.594;2023-02-08T00:31:57;17.40;;;10.38;;
22470;SDS011;11402;51.374;6.594;2023-02-08T00:34:23;17.73;;;10.32;;
22470;SDS011;11402;51.374;6.594;2023-02-08T00:36:48;16.73;;;9.88;;
22470;SDS011;11402;51.374;6.594;2023-02-08T00:39:14;16.05;;;8.80;;
22470;SDS011;11402;51.374;6.594;2023-02-08T00:41:39;15.25;;;8.73;;
22470;SDS011;11402;51.374;6.594;2023-02-08T00:44:05;14.48;;;9.32;;
22470;SDS011;11402;51.374;6.594;2023-02-08T00:46:31;15.65;;;9.02;;
22470;SDS011;11402;51.374;6.594;2023-02-08T00:48:56;17.23;;;9.70;;
22470;SDS011;11402;51.374;6.594;2023-02-08T00:51:22;18.98;;;9.98;;
22470;SDS011;11402;51.374;6.594;2023-02-08T00:53:47;15.65;;;8.88;;
22470;SDS011;11402;51.374;6.594;2023-02-08T00:56:13;17.75;;;9.57;;
22470;SDS011;11402;51.374;6.594;2023-02-08T00:58:40;16.70;;;9.05;;
22470;SDS011;11402;51.374;6.594;2023-02-08T01:01:06;14.93;;;9.05;;
22470;SDS011;11402;51.374;6.594;2023-02-08T01:03:33;15.80;;;8.63;;
22470;SDS011;11402;51.374;6.594;2023-02-08T01:06:00;15.70;;;9.23;;
22470;SDS011;11402;51.374;6.594;2023-02-08T01:08:27;16.20;;;9.27;;
22470;SDS011;11402;51.374;6.594;2023-02-08T01:10:52;16.55;;;8.93;;
22470;SDS011;11402;51.374;6.594;2023-02-08T01:13:25;16.35;;;9.48;;
22470;SDS011;11402;51.374;6.594;2023-02-08T01:15:51;13.75;;;8.18;;
22470;SDS011;11402;51.374;6.594;2023-02-08T01:18:16;12.68;;;8.10;;
22470;SDS011;11402;51.374;6.594;2023-02-08T01:20:42;12.90;;;8.38;;
22470;SDS011;11402;51.374;6.594;2023-02-08T01:23:07;14.27;;;8.90;;
22470;SDS011;11402;51.374;6.594;2023-02-08T01:25:33;17.08;;;9.85;;
22470;SDS011;11402;51.374;6.594;2023-02-08T01:27:58;17.52;;;9.43;;
22470;SDS011;11402;51.374;6.594;2023-02-08T01:30:24;14.48;;;8.73;;
22470;SDS011;11402;51.374;6.594;2023-02-08T01:32:49;14.38;;;8.75;;
22470;SDS011;11402;51.374;6.594;2023-02-08T01:35:15;17.92;;;9.65;;
22470;SDS011;11402;51.374;6.594;2023-02-08T01:37:41;17.98;;;9.35;;
22470;SDS011;11402;51.374;6.594;2023-02-08T01:40:06;20.02;;;10.07;;
22470;SDS011;11402;51.374;6.594;2023-02-08T01:42:32;16.48;;;9.70;;
22470;SDS011;11402;51.374;6.594;2023-02-08T01:47:46;14.20;;;8.52;;
22470;SDS011;11402;51.374;6.594;2023-02-08T01:50:14;16.52;;;9.27;;
22470;SDS011;11402;51.374;6.594;2023-02-08T01:52:43;14.48;;;8.13;;
22470;SDS011;11402;51.374;6.594;2023-02-08T01:55:14;15.85;;;9.05;;
22470;SDS011;11402;51.374;6.594;2023-02-08T01:57:43;19.05;;;9.35;;
22470;SDS011;11402;51.374;6.594;2023-02-08T02:00:14;16.30;;;9.50;;
22470;SDS011;11402;51.374;6.594;2023-02-08T02:02:43;11.15;;;6.35;;
22470;SDS011;11402;51.374;6.594;2023-02-08T02:05:11;19.38;;;9.10;;
22470;SDS011;11402;51.374;6.594;2023-02-08T02:07:37;18.02;;;9.65;;
22470;SDS011;11402;51.374;6.594;2023-02-08T02:12:50;16.58;;;9.02;;
22470;SDS011;11402;51.374;6.594;2023-02-08T02:15:17;16.83;;;10.15;;
22470;SDS011;11402;51.374;6.594;2023-02-08T02:17:43;14.35;;;9.32;;
22470;SDS011;11402;51.374;6.594;2023-02-08T02:23:15;15.23;;;9.55;;
22470;SDS011;11402;51.374;6.594;2023-02-08T02:26:14;16.17;;;9.32;;
22470;SDS011;11402;51.374;6.594;2023-02-08T02:37:29;15.18;;;9.68;;
22470;SDS011;11402;51.374;6.594;2023-02-08T02:40:25;14.40;;;8.98;;
22470;SDS011;11402;51.374;6.594;2023-02-08T02:43:15;14.93;;;8.77;;
22470;SDS011;11402;51.374;6.594;2023-02-08T02:46:10;14.63;;;9.27;;
22470;SDS011;11402;51.374;6.594;2023-02-08T02:49:03;17.85;;;9.05;;
22470;SDS011;11402;51.374;6.594;2023-02-08T02:54:13;16.55;;;9.27;;
22470;SDS011;11402;51.374;6.594;2023-02-08T02:56:44;14.05;;;8.88;;
22470;SDS011;11402;51.374;6.594;2023-02-08T02:59:14;14.80;;;8.98;;
22470;SDS011;11402;51.374;6.594;2023-02-08T03:01:41;16.17;;;9.20;;
22470;SDS011;11402;51.374;6.594;2023-02-08T03:09:22;17.88;;;9.00;;
22470;SDS011;11402;51.374;6.594;2023-02-08T03:20:49;14.60;;;8.63;;
22470;SDS011;11402;51.374;6.594;2023-02-08T03:23:48;16.13;;;8.88;;
22470;SDS011;11402;51.374;6.594;2023-02-08T03:26:36;15.80;;;8.90;;
22470;SDS011;11402;51.374;6.594;2023-02-08T03:29:18;19.80;;;8.98;;
22470;SDS011;11402;51.374;6.594;2023-02-08T03:31:58;15.30;;;9.45;;
22470;SDS011;11402;51.374;6.594;2023-02-08T03:34:46;15.60;;;8.63;;
22470;SDS011;11402;51.374;6.594;2023-02-08T03:37:42;17.92;;;8.60;;
22470;SDS011;11402;51.374;6.594;2023-02-08T03:40:19;14.88;;;8.93;;
22470;SDS011;11402;51.374;6.594;2023-02-08T03:42:58;16.73;;;8.90;;
22470;SDS011;11402;51.374;6.594;2023-02-08T03:45:48;14.80;;;8.60;;
22470;SDS011;11402;51.374;6.594;2023-02-08T03:48:17;15.00;;;9.13;;
22470;SDS011;11402;51.374;6.594;2023-02-08T03:50:46;16.60;;;9.75;;
22470;SDS011;11402;51.374;6.594;2023-02-08T03:53:15;13.90;;;8.93;;
22470;SDS011;11402;51.374;6.594;2023-02-08T03:55:44;14.30;;;9.23;;
22470;SDS011;11402;51.374;6.594;2023-02-08T03:58:37;17.88;;;9.13;;
22470;SDS011;11402;51.374;6.594;2023-02-08T04:01:09;14.90;;;8.73;;
22470;SDS011;11402;51.374;6.594;2023-02-08T04:03:43;15.85;;;9.30;;
22470;SDS011;11402;51.374;6.594;2023-02-08T04:06:10;15.43;;;9.27;;
22470;SDS011;11402;51.374;6.594;2023-02-08T04:08:36;20.55;;;9.40;;
22470;SDS011;11402;51.374;6.594;2023-02-08T04:11:01;16.38;;;8.57;;
22470;SDS011;11402;51.374;6.594;2023-02-08T04:13:27;14.05;;;8.60;;
22470;SDS011;11402;51.374;6.594;2023-02-08T04:15:53;14.60;;;8.40;;
22470;SDS011;11402;51.374;6.594;2023-02-08T04:18:18;18.08;;;9.05;;
22470;SDS011;11402;51.374;6.594;2023-02-08T04:20:44;17.08;;;9.20;;
22470;SDS011;11402;51.374;6.594;2023-02-08T04:23:09;16.65;;;8.93;;
22470;SDS011;11402;51.374;6.594;2023-02-08T04:25:35;14.18;;;8.82;;
22470;SDS011;11402;51.374;6.594;2023-02-08T04:28:00;13.73;;;8.25;;
22470;SDS011;11402;51.374;6.594;2023-02-08T04:30:26;16.42;;;8.73;;
22470;SDS011;11402;51.374;6.594;2023-02-08T04:32:51;15.90;;;9.07;;
22470;SDS011;11402;51.374;6.594;2023-02-08T04:35:17;16.35;;;9.00;;
22470;SDS011;11402;51.374;6.594;2023-02-08T04:37:43;15.65;;;9.05;;
22470;SDS011;11402;51.374;6.594;2023-02-08T04:40:09;14.73;;;8.60;;
22470;SDS011;11402;51.374;6.594;2023-02-08T04:42:35;16.33;;;9.63;;
22470;SDS011;11402;51.374;6.594;2023-02-08T04:45:00;17.42;;;10.13;;
22470;SDS011;11402;51.374;6.594;2023-02-08T04:47:26;16.38;;;9.80;;
22470;SDS011;11402;51.374;6.594;2023-02-08T04:49:51;15.60;;;8.75;;
22470;SDS011;11402;51.374;6.594;2023-02-08T04:52:17;16.73;;;9.27;;
22470;SDS011;11402;51.374;6.594;2023-02-08T04:54:42;15.68;;;9.05;;
22470;SDS011;11402;51.374;6.594;2023-02-08T04:57:11;16.52;;;9.35;;
22470;SDS011;11402;51.374;6.594;2023-02-08T04:59:37;17.58;;;8.98;;
22470;SDS011;11402;51.374;6.594;2023-02-08T05:02:03;13.23;;;8.52;;
22470;SDS011;11402;51.374;6.594;2023-02-08T05:04:29;17.33;;;8.05;;
22470;SDS011;11402;51.374;6.594;2023-02-08T05:06:55;14.98;;;8.98;;
22470;SDS011;11402;51.374;6.594;2023-02-08T05:09:20;14.85;;;8.20;;
22470;SDS011;11402;51.374;6.594;2023-02-08T05:11:46;17.15;;;8.70;;
22470;SDS011;11402;51.374;6.594;2023-02-08T05:14:11;15.10;;;8.73;;
22470;SDS011;11402;51.374;6.594;2023-02-08T05:16:37;15.88;;;8.35;;
22470;SDS011;11402;51.374;6.594;2023-02-08T05:19:02;16.27;;;8.70;;
22470;SDS011;11402;51.374;6.594;2023-02-08T05:21:28;14.77;;;8.45;;
22470;SDS011;11402;51.374;6.594;2023-02-08T05:23:54;16.95;;;8.70;;
22470;SDS011;11402;51.374;6.594;2023-02-08T05:26:19;15.63;;;8.77;;
22470;SDS011;11402;51.374;6.594;2023-02-08T05:28:45;17.67;;;9.52;;
22470;SDS011;11402;51.374;6.594;2023-02-08T05:31:12;17.23;;;9.30;;
22470;SDS011;11402;51.374;6.594;2023-02-08T05:33:46;19.30;;;9.65;;
22470;SDS011;11402;51.374;6.594;2023-02-08T05:36:12;18.42;;;9.52;;
22470;SDS011;11402;51.374;6.594;2023-02-08T05:38:38;20.98;;;9.75;;
22470;SDS011;11402;51.374;6.594;2023-02-08T05:41:04;16.52;;;9.50;;
22470;SDS011;11402;51.374;6.594;2023-02-08T05:43:29;19.55;;;9.57;;
22470;SDS011;11402;51.374;6.594;2023-02-08T05:45:55;15.40;;;9.85;;
22470;SDS011;11402;51.374;6.594;2023-02-08T05:48:21;18.45;;;9.70;;
22470;SDS011;11402;51.374;6.594;2023-02-08T05:50:46;16.13;;;9.13;;
22470;SDS011;11402;51.374;6.594;2023-02-08T05:53:12;17.13;;;10.30;;
22470;SDS011;11402;51.374;6.594;2023-02-08T05:55:37;17.15;;;9.70;;
22470;SDS011;11402;51.374;6.594;2023-02-08T05:58:03;15.55;;;8.98;;
22470;SDS011;11402;51.374;6.594;2023-02-08T06:00:28;15.80;;;9.80;;
22470;SDS011;11402;51.374;6.594;2023-02-08T06:02:55;18.13;;;9.65;;
22470;SDS011;11402;51.374;6.594;2023-02-08T06:05:21;17.67;;;9.80;;
22470;SDS011;11402;51.374;6.594;2023-02-08T06:07:47;21.20;;;9.68;;
22470;SDS011;11402;51.374;6.594;2023-02-08T06:10:12;19.00;;;9.68;;
22470;SDS011;11402;51.374;6.594;2023-02-08T06:12:38;17.25;;;9.70;;
22470;SDS011;11402;51.374;6.594;2023-02-08T06:15:04;15.73;;;9.27;;
22470;SDS011;11402;51.374;6.594;2023-02-08T06:17:29;17.30;;;9.82;;
22470;SDS011;11402;51.374;6.594;2023-02-08T06:19:55;21.10;;;9.40;;
22470;SDS011;11402;51.374;6.594;2023-02-08T06:22:21;19.88;;;10.85;;
22470;SDS011;11402;51.374;6.594;2023-02-08T06:24:46;16.40;;;8.93;;
22470;SDS011;11402;51.374;6.594;2023-02-08T06:27:12;16.42;;;9.10;;
22470;SDS011;11402;51.374;6.594;2023-02-08T06:29:38;15.60;;;9.27;;
22470;SDS011;11402;51.374;6.594;2023-02-08T06:32:03;18.77;;;9.77;;
22470;SDS011;11402;51.374;6.594;2023-02-08T06:34:29;19.00;;;9.15;;
22470;SDS011;11402;51.374;6.594;2023-02-08T06:36:55;20.52;;;9.32;;
22470;SDS011;11402;51.374;6.594;2023-02-08T06:39:21;17.20;;;9.30;;
22470;SDS011;11402;51.374;6.594;2023-02-08T06:41:46;16.08;;;9.00;;
22470;SDS011;11402;51.374;6.594;2023-02-08T06:44:12;16.63;;;8.95;;
22470;SDS011;11402;51.374;6.594;2023-02-08T06:46:37;17.98;;;9.07;;
22470;SDS011;11402;51.374;6.594;2023-02-08T06:49:03;15.23;;;9.07;;
22470;SDS011;11402;51.374;6.594;2023-02-08T06:51:29;19.80;;;9.32;;
22470;SDS011;11402;51.374;6.594;2023-02-08T06:53:54;20.83;;;9.20;;
22470;SDS011;11402;51.374;6.594;2023-02-08T06:56:20;14.63;;;8.20;;
22470;SDS011;11402;51.374;6.594;2023-02-08T06:58:45;17.50;;;8.25;;
22470;SDS011;11402;51.374;6.594;2023-02-08T07:01:14;15.05;;;8.10;;
22470;SDS011;11402;51.374;6.594;2023-02-08T07:03:39;14.52;;;8.50;;
22470;SDS011;11402;51.374;6.594;2023-02-08T07:06:13;19.92;;;9.15;;
22470;SDS011;11402;51.374;6.594;2023-02-08T07:08:40;15.55;;;8.32;;
22470;SDS011;11402;51.374;6.594;2023-02-08T07:11:09;15.38;;;8.73;;
22470;SDS011;11402;51.374;6.594;2023-02-08T07:13:39;21.92;;;9.43;;
22470;SDS011;11402;51.374;6.594;2023-02-08T07:16:05;25.05;;;9.07;;
22470;SDS011;11402;51.374;6.594;2023-02-08T07:18:31;19.13;;;9.07;;
22470;SDS011;11402;51.374;6.594;2023-02-08T07:20:57;17.75;;;9.60;;
22470;SDS011;11402;51.374;6.594;2023-02-08T07:23:23;17.58;;;9.27;;
22470;SDS011;11402;51.374;6.594;2023-02-08T07:25:58;16.92;;;8.82;;
22470;SDS011;11402;51.374;6.594;2023-02-08T07:28:29;17.17;;;9.05;;
22470;SDS011;11402;51.374;6.594;2023-02-08T07:30:55;19.55;;;9.40;;
22470;SDS011;11402;51.374;6.594;2023-02-08T07:33:21;17.48;;;8.77;;
22470;SDS011;11402;51.374;6.594;2023-02-08T07:35:48;20.55;;;9.75;;
22470;SDS011;11402;51.374;6.594;2023-02-08T07:38:14;17.00;;;9.20;;
22470;SDS011;11402;51.374;6.594;2023-02-08T07:40:40;18.23;;;9.80;;
22470;SDS011;11402;51.374;6.594;2023-02-08T07:43:05;21.50;;;10.05;;
22470;SDS011;11402;51.374;6.594;2023-02-08T07:45:31;15.75;;;10.15;;
22470;SDS011;11402;51.374;6.594;2023-02-08T07:47:57;20.42;;;10.57;;
22470;SDS011;11402;51.374;6.594;2023-02-08T07:50:23;16.23;;;10.02;;
22470;SDS011;11402;51.374;6.594;2023-02-08T07:52:49;19.60;;;10.23;;
22470;SDS011;11402;51.374;6.594;2023-02-08T07:55:14;16.17;;;9.30;;
22470;SDS011;11402;51.374;6.594;2023-02-08T07:57:44;17.45;;;10.43;;
22470;SDS011;11402;51.374;6.594;2023-02-08T08:00:12;19.77;;;10.52;;
22470;SDS011;11402;51.374;6.594;2023-02-08T08:02:38;20.05;;;11.02;;
22470;SDS011;11402;51.374;6.594;2023-02-08T08:05:04;21.92;;;11.00;;
22470;SDS011;11402;51.374;6.594;2023-02-08T08:07:30;22.20;;;11.55;;
22470;SDS011;11402;51.374;6.594;2023-02-08T08:09:55;22.30;;;10.98;;
22470;SDS011;11402;51.374;6.594;2023-02-08T08:12:21;17.88;;;10.75;;
22470;SDS011;11402;51.374;6.594;2023-02-08T08:14:48;20.08;;;11.43;;
22470;SDS011;11402;51.374;6.594;2023-02-08T08:17:14;21.95;;;11.98;;
22470;SDS011;11402;51.374;6.594;2023-02-08T08:19:40;19.92;;;11.07;;
22470;SDS011;11402;51.374;6.594;2023-02-08T08:22:05;23.55;;;11.98;;
22470;SDS011;11402;51.374;6.594;2023-02-08T08:24:31;21.25;;;10.77;;
22470;SDS011;11402;51.374;6.594;2023-02-08T08:26:59;23.23;;;11.85;;
22470;SDS011;11402;51.374;6.594;2023-02-08T08:29:26;24.00;;;11.23;;
22470;SDS011;11402;51.374;6.594;2023-02-08T08:31:52;22.33;;;10.88;;
22470;SDS011;11402;51.374;6.594;2023-02-08T08:34:17;24.75;;;11.65;;
22470;SDS011;11402;51.374;6.594;2023-02-08T08:36:43;24.40;;;11.15;;
22470;SDS011;11402;51.374;6.594;2023-02-08T08:39:08;19.65;;;10.75;;
22470;SDS011;11402;51.374;6.594;2023-02-08T08:41:34;19.65;;;10.18;;
22470;SDS011;11402;51.374;6.594;2023-02-08T08:44:01;20.33;;;11.07;;
22470;SDS011;11402;51.374;6.594;2023-02-08T08:46:27;19.35;;;10.15;;
22470;SDS011;11402;51.374;6.594;2023-02-08T08:48:52;19.02;;;10.15;;
22470;SDS011;11402;51.374;6.594;2023-02-08T08:51:18;15.75;;;8.80;;
22470;SDS011;11402;51.374;6.594;2023-02-08T08:53:44;17.75;;;9.93;;
22470;SDS011;11402;51.374;6.594;2023-02-08T08:56:09;17.25;;;9.40;;
22470;SDS011;11402;51.374;6.594;2023-02-08T08:58:35;17.88;;;9.23;;
22470;SDS011;11402;51.374;6.594;2023-02-08T09:01:01;13.50;;;9.02;;
22470;SDS011;11402;51.374;6.594;2023-02-08T09:03:27;18.38;;;9.02;;
22470;SDS011;11402;51.374;6.594;2023-02-08T09:05:53;15.27;;;9.23;;
22470;SDS011;11402;51.374;6.594;2023-02-08T09:08:18;14.77;;;8.82;;
22470;SDS011;11402;51.374;6.594;2023-02-08T09:10:44;17.98;;;8.85;;
22470;SDS011;11402;51.374;6.594;2023-02-08T09:13:10;14.40;;;8.70;;
22470;SDS011;11402;51.374;6.594;2023-02-08T09:15:43;14.85;;;8.38;;
22470;SDS011;11402;51.374;6.594;2023-02-08T09:18:09;14.48;;;7.85;;
22470;SDS011;11402;51.374;6.594;2023-02-08T09:20:36;13.77;;;8.20;;
22470;SDS011;11402;51.374;6.594;2023-02-08T09:23:02;14.73;;;8.38;;
22470;SDS011;11402;51.374;6.594;2023-02-08T09:25:28;23.85;;;8.73;;
22470;SDS011;11402;51.374;6.594;2023-02-08T09:27:53;15.43;;;8.80;;
22470;SDS011;11402;51.374;6.594;2023-02-08T09:30:19;15.52;;;8.43;;
22470;SDS011;11402;51.374;6.594;2023-02-08T09:32:44;13.48;;;8.20;;
22470;SDS011;11402;51.374;6.594;2023-02-08T09:35:10;15.48;;;7.57;;
22470;SDS011;11402;51.374;6.594;2023-02-08T09:37:37;13.55;;;7.38;;
22470;SDS011;11402;51.374;6.594;2023-02-08T09:40:03;13.13;;;7.70;;
22470;SDS011;11402;51.374;6.594;2023-02-08T09:50:43;9.60;;;6.15;;
22470;SDS011;11402;51.374;6.594;2023-02-08T09:53:24;11.32;;;6.35;;
22470;SDS011;11402;51.374;6.594;2023-02-08T09:56:00;7.63;;;4.68;;
22470;SDS011;11402;51.374;6.594;2023-02-08T09:58:33;10.82;;;6.43;;
22470;SDS011;11402;51.374;6.594;2023-02-08T10:01:11;10.02;;;6.00;;
22470;SDS011;11402;51.374;6.594;2023-02-08T10:03:43;11.40;;;6.07;;
22470;SDS011;11402;51.374;6.594;2023-02-08T10:06:13;11.57;;;5.82;;
22470;SDS011;11402;51.374;6.594;2023-02-08T10:08:41;11.30;;;6.82;;
22470;SDS011;11402;51.374;6.594;2023-02-08T10:16:54;11.32;;;5.53;;
22470;SDS011;11402;51.374;6.594;2023-02-08T10:19:48;10.27;;;6.20;;
22470;SDS011;11402;51.374;6.594;2023-02-08T10:22:28;12.35;;;6.38;;
22470;SDS011;11402;51.374;6.594;2023-02-08T10:25:15;12.05;;;6.40;;
22470;SDS011;11402;51.374;6.594;2023-02-08T10:33:11;9.10;;;5.72;;
22470;SDS011;11402;51.374;6.594;2023-02-08T10:36:01;8.82;;;5.63;;
22470;SDS011;11402;51.374;6.594;2023-02-08T10:38:35;11.15;;;5.95;;
22470;SDS011;11402;51.374;6.594;2023-02-08T10:41:03;9.38;;;6.15;;
22470;SDS011;11402;51.374;6.594;2023-02-08T10:46:15;9.95;;;6.35;;
22470;SDS011;11402;51.374;6.594;2023-02-08T10:51:41;11.10;;;6.10;;
22470;SDS011;11402;51.374;6.594;2023-02-08T10:54:13;9.65;;;6.00;;
22470;SDS011;11402;51.374;6.594;2023-02-08T10:56:42;10.77;;;5.95;;
22470;SDS011;11402;51.374;6.594;2023-02-08T10:59:32;14.70;;;5.70;;
22470;SDS011;11402;51.374;6.594;2023-02-08T11:02:07;9.77;;;5.53;;
22470;SDS011;11402;51.374;6.594;2023-02-08T11:05:20;9.40;;;5.57;;
22470;SDS011;11402;51.374;6.594;2023-02-08T11:07:44;12.23;;;5.75;;
22470;SDS011;11402;51.374;6.594;2023-02-08T11:12:42;11.05;;;5.75;;
22470;SDS011;11402;51.374;6.594;2023-02-08T11:15:36;10.10;;;5.63;;
22470;SDS011;11402;51.374;6.594;2023-02-08T11:21:36;9.57;;;5.07;;
22470;SDS011;11402;51.374;6.594;2023-02-08T11:26:54;8.80;;;5.53;;
22470;SDS011;11402;51.374;6.594;2023-02-08T11:29:24;10.55;;;5.32;;
22470;SDS011;11402;51.374;6.594;2023-02-08T11:37:03;7.32;;;5.20;;
22470;SDS011;11402;51.374;6.594;2023-02-08T11:39:52;6.97;;;4.60;;
22470;SDS011;11402;51.374;6.594;2023-02-08T11:42:21;7.75;;;4.57;;
22470;SDS011;11402;51.374;6.594;2023-02-08T11:44:52;7.78;;;4.30;;
22470;SDS011;11402;51.374;6.594;2023-02-08T11:47:23;7.35;;;4.25;;
22470;SDS011;11402;51.374;6.594;2023-02-08T11:49:51;7.55;;;4.03;;
22470;SDS011;11402;51.374;6.594;2023-02-08T11:52:30;6.78;;;4.05;;
22470;SDS011;11402;51.374;6.594;2023-02-08T11:57:59;6.15;;;4.00;;
22470;SDS011;11402;51.374;6.594;2023-02-08T12:00:37;5.25;;;2.95;;
22470;SDS011;11402;51.374;6.594;2023-02-08T12:03:11;6.72;;;3.22;;
22470;SDS011;11402;51.374;6.594;2023-02-08T12:09:02;4.90;;;3.08;;
22470;SDS011;11402;51.374;6.594;2023-02-08T12:12:06;5.22;;;3.28;;
22470;SDS011;11402;51.374;6.594;2023-02-08T12:15:15;6.90;;;3.30;;
22470;SDS011;11402;51.374;6.594;2023-02-08T12:26:04;5.70;;;3.10;;
22470;SDS011;11402;51.374;6.594;2023-02-08T12:28:41;5.65;;;3.60;;
22470;SDS011;11402;51.374;6.594;2023-02-08T12:36:30;7.53;;;4.18;;
22470;SDS011;11402;51.374;6.594;2023-02-08T12:42:30;5.35;;;3.03;;
22470;SDS011;11402;51.374;6.594;2023-02-08T12:53:04;5.38;;;2.80;;
22470;SDS011;11402;51.374;6.594;2023-02-08T12:55:43;6.28;;;3.53;;
22470;SDS011;11402;51.374;6.594;2023-02-08T13:01:01;42.20;;;17.08;;
22470;SDS011;11402;51.374;6.594;2023-02-08T13:03:42;30.17;;;14.80;;
22470;SDS011;11402;51.374;6.594;2023-02-08T13:06:15;9.20;;;3.30;;
22470;SDS011;11402;51.374;6.594;2023-02-08T13:11:27;5.25;;;3.15;;
22470;SDS011;11402;51.374;6.594;2023-02-08T13:14:10;6.72;;;3.38;;
22470;SDS011;11402;51.374;6.594;2023-02-08T13:16:58;5.65;;;3.35;;
22470;SDS011;11402;51.374;6.594;2023-02-08T13:22:31;7.47;;;3.30;;
22470;SDS011;11402;51.374;6.594;2023-02-08T13:25:01;6.45;;;3.22;;
22470;SDS011;11402;51.374;6.594;2023-02-08T13:27:28;6.25;;;3.83;;
22470;SDS011;11402;51.374;6.594;2023-02-08T13:29:53;6.00;;;3.55;;
22470;SDS011;11402;51.374;6.594;2023-02-08T13:32:35;6.35;;;3.40;;
22470;SDS011;11402;51.374;6.594;2023-02-08T13:37:41;6.88;;;3.72;;
22470;SDS011;11402;51.374;6.594;2023-02-08T13:40:20;6.45;;;3.45;;
22470;SDS011;11402;51.374;6.594;2023-02-08T13:45:30;5.88;;;3.63;;
22470;SDS011;11402;51.374;6.594;2023-02-08T13:48:08;8.43;;;4.00;;
22470;SDS011;11402;51.374;6.594;2023-02-08T13:50:38;7.63;;;3.80;;
22470;SDS011;11402;51.374;6.594;2023-02-08T13:53:07;5.95;;;3.85;;
22470;SDS011;11402;51.374;6.594;2023-02-08T13:55:41;9.70;;;4.10;;
22470;SDS011;11402;51.374;6.594;2023-02-08T14:01:24;5.35;;;3.33;;
22470;SDS011;11402;51.374;6.594;2023-02-08T14:03:29;6.03;;;3.97;;
22470;SDS011;11402;51.374;6.594;2023-02-08T14:08:27;5.55;;;3.78;;
22470;SDS011;11402;51.374;6.594;2023-02-08T14:13:46;6.68;;;3.65;;
22470;SDS011;11402;51.374;6.594;2023-02-08T14:16:21;8.95;;;3.88;;
22470;SDS011;11402;51.374;6.594;2023-02-08T14:18:52;9.07;;;3.88;;
22470;SDS011;11402;51.374;6.594;2023-02-08T14:21:26;5.95;;;3.67;;
22470;SDS011;11402;51.374;6.594;2023-02-08T14:24:06;5.82;;;3.53;;
22470;SDS011;11402;51.374;6.594;2023-02-08T14:26:43;6.97;;;4.60;;
22470;SDS011;11402;51.374;6.594;2023-02-08T14:29:15;7.32;;;4.10;;
22470;SDS011;11402;51.374;6.594;2023-02-08T14:31:46;10.23;;;5.22;;
22470;SDS011;11402;51.374;6.594;2023-02-08T14:34:37;8.80;;;4.97;;
22470;SDS011;11402;51.374;6.594;2023-02-08T14:37:03;7.32;;;4.18;;
22470;SDS011;11402;51.374;6.594;2023-02-08T14:39:35;7.20;;;3.95;;
22470;SDS011;11402;51.374;6.594;2023-02-08T14:42:05;9.07;;;4.65;;
22470;SDS011;11402;51.374;6.594;2023-02-08T14:47:02;7.18;;;3.85;;
22470;SDS011;11402;51.374;6.594;2023-02-08T14:49:40;5.82;;;3.92;;
22470;SDS011;11402;51.374;6.594;2023-02-08T14:52:12;6.97;;;4.22;;
22470;SDS011;11402;51.374;6.594;2023-02-08T14:54:47;7.55;;;4.78;;
22470;SDS011;11402;51.374;6.594;2023-02-08T14:59:58;7.22;;;4.20;;
22470;SDS011;11402;51.374;6.594;2023-02-08T15:02:26;5.70;;;3.40;;
22470;SDS011;11402;51.374;6.594;2023-02-08T15:04:56;7.93;;;5.05;;
22470;SDS011;11402;51.374;6.594;2023-02-08T15:09:48;6.68;;;3.95;;
22470;SDS011;11402;51.374;6.594;2023-02-08T15:12:16;6.85;;;4.22;;
22470;SDS011;11402;51.374;6.594;2023-02-08T15:14:54;7.65;;;4.32;;
22470;SDS011;11402;51.374;6.594;2023-02-08T15:19:55;7.97;;;4.30;;
22470;SDS011;11402;51.374;6.594;2023-02-08T15:24:54;8.02;;;4.50;;
22470;SDS011;11402;51.374;6.594;2023-02-08T15:27:27;8.00;;;4.75;;
22470;SDS011;11402;51.374;6.594;2023-02-08T15:29:55;14.10;;;4.97;;
22470;SDS011;11402;51.374;6.594;2023-02-08T15:32:21;8.60;;;4.53;;
22470;SDS011;11402;51.374;6.594;2023-02-08T15:34:51;10.40;;;4.93;;
22470;SDS011;11402;51.374;6.594;2023-02-08T15:37:19;11.10;;;5.75;;
22470;SDS011;11402;51.374;6.594;2023-02-08T15:39:48;11.18;;;5.60;;
22470;SDS011;11402;51.374;6.594;2023-02-08T15:42:21;7.67;;;4.00;;
22470;SDS011;11402;51.374;6.594;2023-02-08T15:44:49;8.35;;;4.72;;
22470;SDS011;11402;51.374;6.594;2023-02-08T15:47:21;9.32;;;4.60;;
22470;SDS011;11402;51.374;6.594;2023-02-08T15:49:51;5.07;;;3.38;;
22470;SDS011;11402;51.374;6.594;2023-02-08T15:52:20;7.57;;;4.03;;
22470;SDS011;11402;51.374;6.594;2023-02-08T15:54:48;8.70;;;3.45;;
22470;SDS011;11402;51.374;6.594;2023-02-08T16:00:02;7.07;;;4.18;;
22470;SDS011;11402;51.374;6.594;2023-02-08T16:02:38;10.13;;;4.50;;
22470;SDS011;11402;51.374;6.594;2023-02-08T16:05:26;9.93;;;6.00;;
22470;SDS011;11402;51.374;6.594;2023-02-08T16:07:54;9.35;;;5.32;;
22470;SDS011;11402;51.374;6.594;2023-02-08T16:10:31;9.38;;;4.57;;
22470;SDS011;11402;51.374;6.594;2023-02-08T16:12:59;10.23;;;5.90;;
22470;SDS011;11402;51.374;6.594;2023-02-08T16:15:34;11.80;;;6.20;;
22470;SDS011;11402;51.374;6.594;2023-02-08T16:29:25;7.90;;;4.75;;
22470;SDS011;11402;51.374;6.594;2023-02-08T16:31:57;16.27;;;7.50;;
22470;SDS011;11402;51.374;6.594;2023-02-08T16:34:34;16.73;;;5.90;;
22470;SDS011;11402;51.374;6.594;2023-02-08T16:37:02;19.50;;;7.75;;
22470;SDS011;11402;51.374;6.594;2023-02-08T16:42:19;20.20;;;8.50;;
22470;SDS011;11402;51.374;6.594;2023-02-08T16:44:58;26.60;;;11.50;;
22470;SDS011;11402;51.374;6.594;2023-02-08T16:47:53;53.90;;;21.45;;
22470;SDS011;11402;51.374;6.594;2023-02-08T16:50:24;39.85;;;16.92;;
22470;SDS011;11402;51.374;6.594;2023-02-08T16:52:52;35.13;;;16.13;;
22470;SDS011;11402;51.374;6.594;2023-02-08T16:55:21;33.42;;;14.43;;
22470;SDS011;11402;51.374;6.594;2023-02-08T16:57:53;38.08;;;15.35;;
22470;SDS011;11402;51.374;6.594;2023-02-08T17:02:47;53.20;;;19.55;;
22470;SDS011;11402;51.374;6.594;2023-02-08T17:05:14;48.95;;;18.15;;
22470;SDS011;11402;51.374;6.594;2023-02-08T17:07:40;43.90;;;17.48;;
22470;SDS011;11402;51.374;6.594;2023-02-08T17:10:06;44.08;;;16.80;;
22470;SDS011;11402;51.374;6.594;2023-02-08T17:12:33;42.92;;;15.85;;
22470;SDS011;11402;51.374;6.594;2023-02-08T17:14:58;39.03;;;15.23;;
22470;SDS011;11402;51.374;6.594;2023-02-08T17:17:24;39.10;;;14.18;;
22470;SDS011;11402;51.374;6.594;2023-02-08T17:19:49;35.75;;;14.52;;
22470;SDS011;11402;51.374;6.594;2023-02-08T17:22:15;42.45;;;16.48;;
22470;SDS011;11402;51.374;6.594;2023-02-08T17:24:41;53.08;;;19.00;;
22470;SDS011;11402;51.374;6.594;2023-02-08T17:27:09;41.88;;;17.85;;
22470;SDS011;11402;51.374;6.594;2023-02-08T17:29:37;43.40;;;18.85;;